Participated 3 times
Between 1972 and 1981
Eddy Verstraeten, Belgium
Tour de France 2026 starts from Barcelona, Spain in

Stats and Facts from
Tour de France.

2026   2025   2024   2023  2022  2021  2020  2019   2018  2017   2016   2015  2014  2013   2012   2011  2010   2009   2008   2007   2006   2005   2004   2003   2002   2001   2000   1999   1998   1997  1996   1995   1994   1993   1992  1991   1990   1989   1988   1987   1986   1985   1984   1983  1982  1981   1980   1979  1978  1977   1976  1975  1974  1973   1972   1971   1970  1969   1968   1967   1966   1965  1964  1963   1962   1961   1960   1959   1958   1957  1956   1955   1954   1953   1952  1951  1950  1949   1948  1947  1939   1938   1937   1936   1935   1934   1933  1932   1931   1930  1929   1928   1927   1926  1925  1924  1923   1922   1921   1920   1919  1914   1913   1912   1911   1910  1909   1908   1907   1906  1905  1904   1903 

Tourstats
Sitemap

After stage 21 - 2025:
 16451 starters.
  5464 different riders.
  689 teams.
  2398 stages.
  470 restdays.
  466506.50 km.
  5925 abandoned riders.

Click map for 1907 route.
Facts from Tour de France 1907
  |   Stages.  |   Stage winners.  |   Days in jerseys.  |   Teams.  |   All riders.  |   All riders by age.  |   All riders from.  |  

  |   Rookies.  |   Withdrawls.  |   Average speed.  |   GC.  |   Polka  |   Green  |   White  |   Summits. (In tour)  |   Miscellaneous.  |  

Stage 5 on July 17th. 1907
Pick a stage:  1  2  3  4  5  6  7  8  9  10  11  12  13  14  

After stage 5:    Emile Georget  
  LyonGrenoble | Dist: 311.00km. | Winner: Emile Georget

Podium

Average speed for all riders in stage:  21,760 km./hr.

1
 Emile Georget  Individual11h 17' 00"=27,563  km/h

2
 François Faber  Individual11h 24' 00"+  00:07:00 =27,281  km/h

3
 Luigi Ganna  Individual11h 31' 05"+  00:14:05 =27,001  km/h

4  Carlo Galetti  Individual11h 32' 00"+  00:15:00 =26,965  km/h

5  Eberardo Pavesi  Individual11h 32' 00"+  00:15:00 =26,965  km/h

6  Marcel Cadolle  Individual11h 35' 37"+  00:18:37 =26,825  km/h

7  Cyrille Van Hauwaert  Individual11h 41' 40"+  00:24:40 =26,594  km/h

8  Gustave Garrigou  Individual11h 41' 45"+  00:24:45 =26,591  km/h

9  Louis Trousselier  Individual11h 44' 00"+  00:27:00 =26,506  km/h

10  Lucien Petit-Breton  Individual11h 44' 50"+  00:27:50 =26,474  km/h

11  Henri Lignon  Individual11h 54' 05"+  00:37:05 =26,131  km/h

12  François Beaugendre  Individual11h 55' 02"+  00:38:02 =26,097  km/h

13  Alois Catteau  Individual11h 55' 03"+  00:38:03 =26,096  km/h

14  Clément Anselme Mazan  Individual12h 02' 04"+  00:45:04 =25,842  km/h

15  Léon Georget  Individual12h 11' 25"+  00:54:25 =25,512  km/h

16  Christophe Laurent  Individual12h 11' 26"+  00:54:26 =25,512  km/h

17  Georges Landrieu  Individual12h 16' 49"+  00:59:49 =25,325  km/h

18  Ernest Ricaux  Individual12h 17' 40"+  01:00:40 =25,296  km/h

19  Marcel Lecuyer  Individual12h 26' 12"+  01:09:12 =25,007  km/h

20  Julien Gabory  Individual12h 34' 53"+  01:17:53 =24,719  km/h

21  Augustin Ringeval  Individual12h 41' 14"+  01:24:14 =24,513  km/h

22  Ferdinand Payan  Individual12h 42' 00"+  01:25:00 =24,488  km/h

23  Marcel Godivier  Individual12h 44' 47"+  01:27:47 =24,399  km/h

24  Martin Soulie  Individual12h 47' 20"+  01:30:20 =24,318  km/h

25  Julien Maîtron  Individual12h 51' 55"+  01:34:55 =24,174  km/h

26  Eugène Delaye  Individual12h 54' 00"+  01:37:00 =24,109  km/h

27  Fernand Vercher  Individual12h 55' 50"+  01:38:50 =24,052  km/h

28  Georges Fleury  Individual13h 19' 55"+  02:02:55 =23,327  km/h

29  François  Lafourcade  Individual13h 29' 30"+  02:12:30 =23,051  km/h

30  Joseph Rouaix  Individual13h 47' 10"+  02:30:10 =22,559  km/h

31  Marius Julien Villette  Individual13h 48' 02"+  02:31:02 =22,535  km/h

32  Alzire Vivier  Individual13h 49' 05"+  02:32:05 =22,507  km/h

33  Constant Menager  Individual13h 53' 12"+  02:36:12 =22,396  km/h

34  Marceau Narcy  Individual13h 53' 12"+  02:36:12 =22,396  km/h

35  Jean-Baptiste Roux  Individual13h 56' 40"+  02:39:40 =22,303  km/h

36  Jean Gauban  Individual14h 13' 00"+  02:56:00 =21,876  km/h

37  Georges Bronchard  Individual14h 14' 00"+  02:57:00 =21,850  km/h

38  Albert Baudet  Individual14h 14' 00"+  02:57:00 =21,850  km/h

39  Auguste Dufour  Individual14h 33' 00"+  03:16:00 =21,375  km/h

40  David Dupont  Individual14h 33' 50"+  03:16:50 =21,354  km/h

44  Joseph Ponthieu  Individual15h 00' 25"+  03:43:25 =20,724  km/h

41  François Poiry  Individual15h 11' 50"+  03:54:50 =20,464  km/h

42  Georges Passerieu  Individual15h 12' 00"+  03:55:00 =20,461  km/h

43  Philippe Pautrat  Individual15h 12' 05"+  03:55:05 =20,459  km/h

45  Marcel Dozol  Individual15h 13' 00"+  03:56:00 =20,438  km/h

46  Henri Timmermann  Individual15h 15' 00"+  03:58:00 =20,393  km/h

47  Pierre Privat  Individual15h 16' 00"+  03:59:00 =20,371  km/h

48  Alfred Quenon  Individual15h 23' 00"+  04:06:00 =20,217  km/h

49  Fernand Lallement  Individual15h 59' 00"+  04:42:00 =19,458  km/h

50  Albert Geraud  Individual16h 00' 00"+  04:43:00 =19,438  km/h

51  Gaston Tuvache  Individual16h 19' 00"+  05:02:00 =19,060  km/h

52  Henri Lorillon  Individual16h 20' 00"+  05:03:00 =19,041  km/h

53  Octave Noel  Individual16h 30' 00"+  05:13:00 =18,848  km/h

54  Rene Fleury  Individual16h 40' 00"+  05:23:00 =18,660  km/h

55  Armand Roume  Individual17h 01' 00"+  05:44:00 =18,276  km/h

56  Henri Star  Individual17h 09' 00"+  05:52:00 =18,134  km/h

57  Jules Chabas  Individual17h 15' 00"+  05:58:00 =18,029  km/h

58  Alfred Le Bars  Individual17h 17' 35"+  06:00:35 =17,984  km/h

59  Jacques Mendes  Individual17h 17' 47"+  06:00:47 =17,981  km/h

60  Edouard Wattelier  Individual18h 15' 01"+  06:58:01 =17,041  km/h

61  Honore Genin  Individual18h 15' 03"+  06:58:03 =17,040  km/h

62  Andre Sevestre  Individual18h 25' 00"+  07:08:00 =16,887  km/h

63  Henri Anthoine  Individual18h 25' 01"+  07:08:01 =16,887  km/h

64  Georges Devilly  Individual18h 26' 00"+  07:09:00 =16,872  km/h

65  Albert Chartier  Individual18h 29' 00"+  07:12:00 =16,826  km/h

66  Léon Aumonier  Individual18h 40' 00"+  07:23:00 =16,661  km/h


Withdrawls: 7
 RiderTeamReason
28   Léon Riche IndividualDid not finish
38   Louis Gardent IndividualDid not finish
59   Henri Pépin IndividualDid not finish
62   Eloi Guichard IndividualDid not finish
66   Jean Dargassies IndividualDid not finish
76   Jean-Marie Techenne IndividualDid not finish
108   Pierre Desvages IndividualDid not finish
Todays birthdays.

1884 • Vincenzo Borgarello
1889 • Emile Bonnefoi
1889 • Auguste Denizot
1890 • Maurice Petit
1904 • Pierino Ferioli
1905 • Vincent Carrara
1910 • Antoon Van Schendel
1925 • Georges Meunier
1945 • Gérard Besnard
1950 • Wim Kelleners
1960 • Ivan Ivanov
1960 • Pierre-Henri Menthéour
1962 • Giovanni Bottoia
1964 • Flavio Giupponi
1974 • Benoit Salmon
1977 • Iñigo Landaluze
1977 • Svein Tuft
1979 • Rubens Bertogliati
1985 • Matthew Busche

 

Optimized for Chrome - Edge
and Opera browsers.